createdAt,value
2016-05-25T00:00:13.563Z,0
2016-05-25T00:01:14.097Z,0
2016-05-25T00:02:13.630Z,0
2016-05-25T00:03:13.539Z,0
2016-05-25T00:04:13.589Z,0
2016-05-25T00:05:13.749Z,0
2016-05-25T00:06:13.814Z,0
2016-05-25T00:07:13.863Z,0
2016-05-25T00:08:13.866Z,0
2016-05-25T00:09:13.760Z,0
2016-05-25T00:10:13.980Z,0
2016-05-25T00:11:13.718Z,0
2016-05-25T00:12:14.032Z,0
2016-05-25T00:13:14.066Z,0
2016-05-25T00:14:14.163Z,0
2016-05-25T00:15:14.150Z,0
2016-05-25T00:16:14.622Z,0
2016-05-25T00:17:14.359Z,0
2016-05-25T00:18:14.252Z,0
2016-05-25T00:19:14.301Z,0
2016-05-25T00:20:14.335Z,0
2016-05-25T00:21:14.401Z,0
2016-05-25T00:22:14.419Z,0
2016-05-25T00:23:14.437Z,0
2016-05-25T00:24:14.550Z,0
2016-05-25T00:25:14.365Z,0
2016-05-25T00:26:14.570Z,0
2016-05-25T00:27:14.636Z,0
2016-05-25T00:28:14.639Z,0
2016-05-25T00:29:14.579Z,0
2016-05-25T00:30:14.722Z,0
2016-05-25T00:31:15.490Z,0
2016-05-25T00:32:14.680Z,0
2016-05-25T00:33:14.839Z,0
2016-05-25T00:34:14.889Z,0
2016-05-25T00:35:14.922Z,0
2016-05-25T00:36:14.972Z,0
2016-05-25T00:37:14.990Z,0
2016-05-25T00:38:15.072Z,0
2016-05-25T00:39:15.091Z,0
2016-05-25T00:40:15.124Z,0
2016-05-25T00:41:15.002Z,0
2016-05-25T00:42:15.238Z,0
2016-05-25T00:43:15.272Z,0
2016-05-25T00:44:15.259Z,0
2016-05-25T00:45:15.309Z,0
2016-05-25T00:46:15.390Z,0
2016-05-25T00:47:15.502Z,0
2016-05-25T00:48:15.427Z,0
2016-05-25T00:49:15.304Z,0
2016-05-25T00:50:15.541Z,0
2016-05-25T00:51:15.559Z,0
2016-05-25T00:52:15.578Z,0
2016-05-25T00:53:15.643Z,0
2016-05-25T00:54:15.661Z,0
2016-05-25T00:55:15.712Z,0
2016-05-25T00:56:15.745Z,0
2016-05-25T00:57:15.653Z,0
2016-05-25T00:58:15.828Z,0
2016-05-25T00:59:15.862Z,0
2016-05-25T01:00:15.912Z,0
2016-05-25T01:01:15.992Z,0
2016-05-25T01:02:16.011Z,0
2016-05-25T01:03:15.889Z,0
2016-05-25T01:04:16.110Z,0
2016-05-25T01:05:15.988Z,0
2016-05-25T01:06:15.974Z,0
2016-05-25T01:07:16.180Z,0
2016-05-25T01:08:16.214Z,0
2016-05-25T01:09:16.264Z,0
2016-05-25T01:10:16.299Z,0
2016-05-25T01:11:16.332Z,0
2016-05-25T01:12:16.429Z,0
2016-05-25T01:13:16.399Z,0
2016-05-25T01:14:16.449Z,0
2016-05-25T01:15:16.343Z,0
2016-05-25T01:16:16.876Z,0
2016-05-25T01:17:16.598Z,0
2016-05-25T01:18:16.616Z,0
2016-05-25T01:19:16.651Z,0
2016-05-25T01:20:16.715Z,0
2016-05-25T01:21:16.734Z,0
2016-05-25T01:22:16.768Z,0
2016-05-25T01:23:16.864Z,0
2016-05-25T01:24:16.867Z,0
2016-05-25T01:25:16.901Z,0
2016-05-25T01:26:16.981Z,0
2016-05-25T01:27:16.813Z,0
2016-05-25T01:28:17.003Z,0
2016-05-25T01:29:17.084Z,0
2016-05-25T01:30:17.133Z,0
2016-05-25T01:31:17.620Z,0
2016-05-25T01:32:17.170Z,0
2016-05-25T01:33:17.219Z,0
2016-05-25T01:34:17.128Z,0
2016-05-25T01:35:17.287Z,0
2016-05-25T01:36:17.321Z,0
2016-05-25T01:37:17.417Z,0
2016-05-25T01:38:17.435Z,0
2016-05-25T01:39:17.454Z,0
2016-05-25T01:40:17.208Z,0
2016-05-25T01:41:17.538Z,0
2016-05-25T01:42:17.556Z,0
2016-05-25T01:43:17.605Z,0
2016-05-25T01:44:17.655Z,0
2016-05-25T01:45:17.736Z,0
2016-05-25T01:46:17.457Z,0
2016-05-25T01:47:17.632Z,0
2016-05-25T01:48:17.807Z,0
2016-05-25T01:49:17.857Z,0
2016-05-25T01:50:17.874Z,0
2016-05-25T01:51:17.908Z,0
2016-05-25T01:52:18.005Z,0
2016-05-25T01:53:18.023Z,0
2016-05-25T01:54:17.885Z,0
2016-05-25T01:55:18.090Z,0
2016-05-25T01:56:18.125Z,0
2016-05-25T01:57:18.159Z,0
2016-05-25T01:58:18.192Z,0
2016-05-25T01:59:18.258Z,0
2016-05-25T02:00:18.120Z,0
2016-05-25T02:01:18.326Z,0
2016-05-25T02:02:18.032Z,0
2016-05-25T02:03:18.425Z,0
2016-05-25T02:04:18.428Z,0
2016-05-25T02:05:18.461Z,0
2016-05-25T02:06:18.355Z,0
2016-05-25T02:07:18.389Z,0
2016-05-25T02:08:18.579Z,0
2016-05-25T02:09:18.613Z,0
2016-05-25T02:10:18.710Z,0
2016-05-25T02:11:18.572Z,0
2016-05-25T02:12:18.731Z,0
2016-05-25T02:13:18.624Z,0
2016-05-25T02:14:18.705Z,0
2016-05-25T02:15:18.863Z,0
2016-05-25T02:16:18.913Z,0
2016-05-25T02:17:19.149Z,0
2016-05-25T02:18:19.027Z,0
2016-05-25T02:19:19.030Z,0
2016-05-25T02:20:19.065Z,0
2016-05-25T02:21:19.114Z,0
2016-05-25T02:22:18.867Z,0
2016-05-25T02:23:19.182Z,0
2016-05-25T02:24:19.248Z,0
2016-05-25T02:25:19.312Z,0
2016-05-25T02:26:19.190Z,0
2016-05-25T02:27:19.348Z,0
2016-05-25T02:28:19.383Z,0
2016-05-25T02:29:19.291Z,0
2016-05-25T02:30:19.466Z,0
2016-05-25T02:31:19.500Z,0
2016-05-25T02:32:19.831Z,0
2016-05-25T02:33:19.615Z,4
2016-05-25T02:34:19.618Z,4
2016-05-25T02:35:19.652Z,4
2016-05-25T02:36:19.545Z,0
2016-05-25T02:37:19.735Z,4
2016-05-25T02:38:19.753Z,4
2016-05-25T02:39:19.802Z,4
2016-05-25T02:40:19.697Z,4
2016-05-25T02:41:19.918Z,4
2016-05-25T02:42:19.921Z,4
2016-05-25T02:43:19.970Z,8
2016-05-25T02:44:20.066Z,4
2016-05-25T02:45:19.897Z,8
2016-05-25T02:46:21.213Z,8
2016-05-25T02:47:20.152Z,8
2016-05-25T02:48:20.015Z,12
2016-05-25T02:49:20.204Z,12
2016-05-25T02:50:20.238Z,16
2016-05-25T02:51:20.321Z,16
2016-05-25T02:52:20.322Z,20
2016-05-25T02:53:20.201Z,20
2016-05-25T02:54:20.406Z,24
2016-05-25T02:55:20.174Z,24
2016-05-25T02:56:20.474Z,24
2016-05-25T02:57:20.507Z,28
2016-05-25T02:58:20.432Z,32
2016-05-25T02:59:20.606Z,36
2016-05-25T03:00:20.625Z,40
2016-05-25T03:01:21.472Z,40
2016-05-25T03:02:20.662Z,44
2016-05-25T03:03:20.648Z,52
2016-05-25T03:04:20.792Z,56
2016-05-25T03:05:20.997Z,64
2016-05-25T03:06:20.907Z,72
2016-05-25T03:07:20.909Z,76
2016-05-25T03:08:20.787Z,84
2016-05-25T03:09:21.008Z,88
2016-05-25T03:10:21.027Z,100
2016-05-25T03:11:21.060Z,108
2016-05-25T03:12:21.095Z,120
2016-05-25T03:13:21.207Z,132
2016-05-25T03:14:21.194Z,152
2016-05-25T03:15:21.071Z,160
2016-05-25T03:16:21.277Z,164
2016-05-25T03:17:21.671Z,192
2016-05-25T03:18:21.346Z,204
2016-05-25T03:19:21.238Z,232
2016-05-25T03:20:21.304Z,232
2016-05-25T03:21:21.494Z,224
2016-05-25T03:22:21.341Z,220
2016-05-25T03:23:21.546Z,232
2016-05-25T03:24:21.627Z,212
2016-05-25T03:25:21.615Z,184
2016-05-25T03:26:21.649Z,164
2016-05-25T03:27:21.526Z,164
2016-05-25T03:28:21.732Z,172
2016-05-25T03:29:21.625Z,180
2016-05-25T03:30:21.659Z,188
2016-05-25T03:31:21.865Z,216
2016-05-25T03:32:21.898Z,236
2016-05-25T03:33:21.933Z,264
2016-05-25T03:34:21.826Z,276
2016-05-25T03:35:21.859Z,272
2016-05-25T03:36:22.050Z,284
2016-05-25T03:37:21.772Z,280
2016-05-25T03:38:22.180Z,280
2016-05-25T03:39:22.183Z,292
2016-05-25T03:40:22.061Z,304
2016-05-25T03:41:22.079Z,312
2016-05-25T03:42:22.144Z,332
2016-05-25T03:43:22.163Z,352
2016-05-25T03:44:22.196Z,364
2016-05-25T03:45:22.402Z,356
2016-05-25T03:46:22.358Z,368
2016-05-25T03:47:22.330Z,368
2016-05-25T03:48:22.520Z,384
2016-05-25T03:49:22.569Z,408
2016-05-25T03:50:22.494Z,400
2016-05-25T03:51:22.637Z,396
2016-05-25T03:52:22.687Z,380
2016-05-25T03:53:22.799Z,408
2016-05-25T03:54:22.754Z,412
2016-05-25T03:55:22.789Z,428
2016-05-25T03:56:22.682Z,452
2016-05-25T03:57:22.732Z,444
2016-05-25T03:58:22.766Z,480
2016-05-25T03:59:22.832Z,512
2016-05-25T04:00:22.881Z,504
2016-05-25T04:01:22.898Z,556
2016-05-25T04:02:23.699Z,548
2016-05-25T04:03:23.139Z,584
2016-05-25T04:04:23.173Z,536
2016-05-25T04:05:23.176Z,588
2016-05-25T04:06:23.225Z,612
2016-05-25T04:07:23.133Z,540
2016-05-25T04:08:23.340Z,564
2016-05-25T04:09:23.342Z,548
2016-05-25T04:10:23.408Z,552
2016-05-25T04:11:23.425Z,596
2016-05-25T04:12:23.459Z,580
2016-05-25T04:13:23.337Z,664
2016-05-25T04:14:23.262Z,668
2016-05-25T04:15:23.577Z,728
2016-05-25T04:16:23.470Z,728
2016-05-25T04:17:23.347Z,764
2016-05-25T04:18:23.725Z,772
2016-05-25T04:19:23.767Z,800
2016-05-25T04:20:23.825Z,856
2016-05-25T04:21:23.898Z,812
2016-05-25T04:22:23.941Z,780
2016-05-25T04:23:24.014Z,824
2016-05-25T04:24:24.134Z,868
2016-05-25T04:25:24.130Z,844
2016-05-25T04:26:24.016Z,888
2016-05-25T04:27:24.199Z,968
2016-05-25T04:28:24.085Z,972
2016-05-25T04:29:24.951Z,976
2016-05-25T04:30:24.347Z,996
2016-05-25T04:31:25.353Z,1044
2016-05-25T04:32:24.265Z,976
2016-05-25T04:33:24.302Z,1112
2016-05-25T04:34:24.509Z,1164
2016-05-25T04:35:24.387Z,1136
2016-05-25T04:36:24.579Z,1152
2016-05-25T04:37:24.614Z,1208
2016-05-25T04:38:24.681Z,1236
2016-05-25T04:39:24.731Z,1148
2016-05-25T04:40:24.608Z,1252
2016-05-25T04:41:24.628Z,1260
2016-05-25T04:42:24.662Z,1292
2016-05-25T04:43:24.898Z,1392
2016-05-25T04:44:24.777Z,1524
2016-05-25T04:45:24.920Z,1360
2016-05-25T04:46:25.173Z,1448
2016-05-25T04:47:25.129Z,1496
2016-05-25T04:48:25.631Z,1316
2016-05-25T04:49:25.087Z,1404
2016-05-25T04:50:24.887Z,1312
2016-05-25T04:51:25.202Z,1232
2016-05-25T04:52:25.126Z,1268
2016-05-25T04:53:25.113Z,1348
2016-05-25T04:54:25.351Z,1380
2016-05-25T04:55:25.322Z,1396
2016-05-25T04:56:25.043Z,1452
2016-05-25T04:57:25.093Z,1500
2016-05-25T04:58:25.502Z,1600
2016-05-25T04:59:26.302Z,1644
2016-05-25T05:00:25.523Z,1632
2016-05-25T05:01:25.729Z,1756
2016-05-25T05:02:25.778Z,1540
2016-05-25T05:03:25.688Z,1300
2016-05-25T05:04:25.768Z,1500
2016-05-25T05:05:25.724Z,1664
2016-05-25T05:06:25.945Z,1636
2016-05-25T05:07:25.870Z,1800
2016-05-25T05:08:25.669Z,1712
2016-05-25T05:09:26.171Z,1836
2016-05-25T05:10:26.174Z,1836
2016-05-25T05:11:26.162Z,1956
2016-05-25T05:12:26.102Z,2044
2016-05-25T05:13:26.245Z,2204
2016-05-25T05:14:25.904Z,2292
2016-05-25T05:15:26.110Z,2332
2016-05-25T05:16:26.207Z,2208
2016-05-25T05:17:26.303Z,2192
2016-05-25T05:18:26.056Z,2380
2016-05-25T05:19:26.386Z,2588
2016-05-25T05:20:26.296Z,3292
2016-05-25T05:21:26.423Z,3492
2016-05-25T05:22:26.364Z,3032
2016-05-25T05:23:26.428Z,3496
2016-05-25T05:24:27.212Z,3264
2016-05-25T05:25:27.012Z,2540
2016-05-25T05:26:26.562Z,2468
2016-05-25T05:27:26.408Z,2092
2016-05-25T05:28:26.645Z,1796
2016-05-25T05:29:27.288Z,1780
2016-05-25T05:30:26.572Z,1844
2016-05-25T05:31:27.716Z,1972
2016-05-25T05:32:26.813Z,2212
2016-05-25T05:33:26.799Z,2624
2016-05-25T05:34:29.161Z,2748
2016-05-25T05:35:26.867Z,2864
2016-05-25T05:36:27.136Z,2300
2016-05-25T05:37:26.951Z,2072
2016-05-25T05:38:27.047Z,1988
2016-05-25T05:39:26.893Z,1912
2016-05-25T05:40:26.771Z,2388
2016-05-25T05:41:26.977Z,2896
2016-05-25T05:42:27.151Z,2916
2016-05-25T05:43:27.029Z,2488
2016-05-25T05:44:27.078Z,2180
2016-05-25T05:45:27.285Z,2048
2016-05-25T05:46:27.381Z,2164
2016-05-25T05:47:27.696Z,2264
2016-05-25T05:48:27.387Z,2108
2016-05-25T05:49:27.436Z,2040
2016-05-25T05:50:27.486Z,2148
2016-05-25T05:51:27.379Z,1960
2016-05-25T05:52:27.553Z,1960
2016-05-25T05:53:27.603Z,2120
2016-05-25T05:54:27.839Z,1992
2016-05-25T05:55:27.671Z,2480
2016-05-25T05:56:27.439Z,2736
2016-05-25T05:57:27.755Z,3176
2016-05-25T05:58:27.789Z,3276
2016-05-25T05:59:27.822Z,2840
2016-05-25T06:00:27.888Z,2308
2016-05-25T06:01:28.108Z,2220
2016-05-25T06:02:28.080Z,2336
2016-05-25T06:03:27.974Z,2652
2016-05-25T06:04:28.054Z,2816
2016-05-25T06:05:27.963Z,2764
2016-05-25T06:06:27.950Z,2848
2016-05-25T06:07:28.140Z,2944
2016-05-25T06:08:28.253Z,2972
2016-05-25T06:09:28.224Z,3204
2016-05-25T06:10:29.477Z,3232
2016-05-25T06:11:28.293Z,3540
2016-05-25T06:12:28.279Z,3880
2016-05-25T06:13:28.391Z,3988
2016-05-25T06:14:28.268Z,3508
2016-05-25T06:15:28.506Z,3548
2016-05-25T06:16:28.837Z,3188
2016-05-25T06:17:28.526Z,3096
2016-05-25T06:18:28.577Z,3220
2016-05-25T06:19:28.876Z,3388
2016-05-25T06:20:28.519Z,3668
2016-05-25T06:21:29.976Z,3844
2016-05-25T06:22:29.947Z,4012
2016-05-25T06:23:29.637Z,4256
2016-05-25T06:24:28.765Z,3772
2016-05-25T06:25:28.861Z,3408
2016-05-25T06:26:28.958Z,3196
2016-05-25T06:27:28.772Z,3012
2016-05-25T06:28:33.509Z,3700
2016-05-25T06:29:28.855Z,3752
2016-05-25T06:30:29.061Z,3572
2016-05-25T06:31:29.111Z,3916
2016-05-25T06:32:29.114Z,4220
2016-05-25T06:33:29.148Z,3928
2016-05-25T06:34:31.167Z,3772
2016-05-25T06:35:29.263Z,3808
2016-05-25T06:36:29.578Z,3828
2016-05-25T06:37:29.347Z,3912
2016-05-25T06:38:35.255Z,4344
2016-05-25T06:39:36.618Z,4236
2016-05-25T06:40:32.666Z,4372
2016-05-25T06:41:29.467Z,4680
2016-05-25T06:42:29.594Z,4496
2016-05-25T06:43:30.832Z,4488
2016-05-25T06:44:29.599Z,4448
2016-05-25T06:45:29.634Z,4504
2016-05-25T06:46:29.761Z,4856
2016-05-25T06:47:29.607Z,5268
2016-05-25T06:48:35.157Z,5060
2016-05-25T06:49:29.800Z,5080
2016-05-25T06:50:29.835Z,5124
2016-05-25T06:51:29.884Z,5304
2016-05-25T06:52:29.902Z,5844
2016-05-25T06:53:38.171Z,5560
2016-05-25T06:54:30.033Z,5804
2016-05-25T06:55:30.051Z,5668
2016-05-25T06:56:30.085Z,6020
2016-05-25T06:57:30.103Z,6252
2016-05-25T06:58:31.809Z,6436
2016-05-25T06:59:30.202Z,6768
2016-05-25T07:00:30.064Z,6832
2016-05-25T07:01:30.192Z,7008
2016-05-25T07:02:30.195Z,6656
2016-05-25T07:03:34.400Z,6756
2016-05-25T07:04:30.388Z,6980
2016-05-25T07:05:31.172Z,6436
2016-05-25T07:06:30.471Z,6040
2016-05-25T07:07:30.505Z,6156
2016-05-25T07:08:32.758Z,6004
2016-05-25T07:09:30.588Z,5964
2016-05-25T07:10:30.466Z,6356
2016-05-25T07:11:30.532Z,6484
2016-05-25T07:12:30.706Z,6256
2016-05-25T07:13:37.287Z,6004
2016-05-25T07:14:30.837Z,6016
2016-05-25T07:15:30.698Z,6752
2016-05-25T07:16:30.748Z,6372
2016-05-25T07:17:30.766Z,6268
2016-05-25T07:18:36.660Z,6028
2016-05-25T07:19:31.084Z,6148
2016-05-25T07:20:31.853Z,6464
2016-05-25T07:21:32.106Z,5908
2016-05-25T07:22:31.140Z,6160
2016-05-25T07:23:36.220Z,7016
2016-05-25T07:24:31.223Z,7372
2016-05-25T07:25:31.303Z,7684
2016-05-25T07:26:31.900Z,7636
2016-05-25T07:27:32.590Z,7396
2016-05-25T07:28:40.795Z,7240
2016-05-25T07:29:34.298Z,6968
2016-05-25T07:30:33.661Z,6368
2016-05-25T07:31:32.992Z,5756
2016-05-25T07:32:33.963Z,5184
2016-05-25T07:33:36.184Z,5144
2016-05-25T07:34:33.703Z,5260
2016-05-25T07:35:34.064Z,5424
2016-05-25T07:36:34.240Z,4956
2016-05-25T07:37:33.149Z,5660
2016-05-25T07:38:32.480Z,6464
2016-05-25T07:39:32.372Z,6184
2016-05-25T07:40:31.907Z,6328
2016-05-25T07:41:31.893Z,6640
2016-05-25T07:42:31.974Z,6232
2016-05-25T07:43:34.086Z,5868
2016-05-25T07:44:31.871Z,6020
2016-05-25T07:45:32.045Z,6732
2016-05-25T07:46:33.798Z,6872
2016-05-25T07:47:32.801Z,7212
2016-05-25T07:48:32.240Z,6900
2016-05-25T07:49:32.322Z,6792
2016-05-25T07:50:32.277Z,7056
2016-05-25T07:51:32.124Z,8464
2016-05-25T07:52:32.470Z,9760
2016-05-25T07:53:32.613Z,10024
2016-05-25T07:54:32.945Z,9884
2016-05-25T07:55:32.494Z,10724
2016-05-25T07:56:34.028Z,10548
2016-05-25T07:57:33.373Z,10228
2016-05-25T07:58:35.799Z,10184
2016-05-25T07:59:32.614Z,10096
2016-05-25T08:00:32.647Z,9468
2016-05-25T08:01:32.728Z,8800
2016-05-25T08:03:38.656Z,8780
2016-05-25T08:03:56.015Z,8892
2016-05-25T08:04:57.737Z,8852
2016-05-25T08:05:57.552Z,8328
2016-05-25T08:06:58.023Z,8360
2016-05-25T08:07:57.589Z,8784
2016-05-25T08:08:58.044Z,9052
2016-05-25T08:09:57.219Z,9004
2016-05-25T08:10:57.503Z,8828
2016-05-25T08:11:53.912Z,8856
2016-05-25T08:12:55.727Z,8660
2016-05-25T08:13:52.948Z,8408
2016-05-25T08:14:53.498Z,8288
2016-05-25T08:15:53.251Z,8452
2016-05-25T08:16:52.988Z,8724
2016-05-25T08:17:56.288Z,9304
2016-05-25T08:18:55.446Z,9712
2016-05-25T08:19:54.746Z,9752
2016-05-25T08:20:55.765Z,9212
2016-05-25T08:21:53.798Z,8508
2016-05-25T08:22:54.160Z,8220
2016-05-25T08:23:53.601Z,8720
2016-05-25T08:24:53.587Z,8076
2016-05-25T08:25:53.606Z,7844
2016-05-25T08:26:53.655Z,7732
2016-05-25T08:27:54.158Z,7760
2016-05-25T08:28:53.739Z,8240
2016-05-25T08:29:53.804Z,8716
2016-05-25T08:30:54.462Z,9016
2016-05-25T08:31:54.153Z,8748
2016-05-25T08:32:55.875Z,8288
2016-05-25T08:33:53.925Z,7968
2016-05-25T08:34:54.614Z,8264
2016-05-25T08:35:54.055Z,9032
2016-05-25T08:36:54.103Z,10084
2016-05-25T08:37:54.529Z,10596
2016-05-25T08:38:55.531Z,10328
2016-05-25T08:39:54.316Z,10588
2016-05-25T08:40:55.099Z,10768
2016-05-25T08:41:54.742Z,10984
2016-05-25T08:42:56.058Z,11144
2016-05-25T08:43:54.294Z,11044
2016-05-25T08:44:54.625Z,10732
2016-05-25T08:45:54.457Z,10304
2016-05-25T08:46:54.505Z,10064
2016-05-25T08:47:57.196Z,11084
2016-05-25T08:48:54.386Z,12568
2016-05-25T08:49:55.654Z,12556
2016-05-25T08:50:55.813Z,12388
2016-05-25T08:51:58.035Z,12624
2016-05-25T08:52:58.460Z,12436
2016-05-25T08:53:56.212Z,12244
2016-05-25T08:54:55.543Z,12588
2016-05-25T08:55:56.062Z,12948
2016-05-25T08:56:54.970Z,12464
2016-05-25T08:57:56.082Z,11860
2016-05-25T08:58:55.163Z,11704
2016-05-25T08:59:55.026Z,12696
2016-05-25T09:00:55.122Z,13980
2016-05-25T09:01:55.265Z,15156
2016-05-25T09:02:55.409Z,16288
2016-05-25T09:03:55.223Z,16472
2016-05-25T09:04:55.085Z,16732
2016-05-25T09:05:55.261Z,17088
2016-05-25T09:06:55.138Z,16716
2016-05-25T09:07:57.312Z,16044
2016-05-25T09:08:55.769Z,15496
2016-05-25T09:09:57.052Z,15044
2016-05-25T09:10:56.336Z,15100
2016-05-25T09:11:55.386Z,14996
2016-05-25T09:12:58.639Z,14184
2016-05-25T09:13:55.641Z,15120
2016-05-25T09:14:55.738Z,16120
2016-05-25T09:15:56.131Z,16132
2016-05-25T09:16:55.806Z,16552
2016-05-25T09:17:56.948Z,16492
2016-05-25T09:18:56.280Z,16396
2016-05-25T09:19:56.173Z,17376
2016-05-25T09:20:56.691Z,17568
2016-05-25T09:21:55.929Z,16412
2016-05-25T09:22:58.775Z,15728
2016-05-25T09:23:56.043Z,16192
2016-05-25T09:24:56.233Z,18016
2016-05-25T09:25:56.267Z,19904
2016-05-25T09:26:56.176Z,19232
2016-05-25T09:27:56.537Z,17184
2016-05-25T09:28:56.322Z,15388
2016-05-25T09:29:56.293Z,14636
2016-05-25T09:30:56.578Z,16172
2016-05-25T09:31:56.737Z,18912
2016-05-25T09:32:57.458Z,20288
2016-05-25T09:33:56.461Z,18112
2016-05-25T09:34:56.714Z,16324
2016-05-25T09:35:57.841Z,17856
2016-05-25T09:36:56.844Z,18912
2016-05-25T09:38:00.955Z,19104
2016-05-25T09:38:59.490Z,17376
2016-05-25T09:39:58.586Z,17088
2016-05-25T09:41:02.260Z,17440
2016-05-25T09:41:58.436Z,17888
2016-05-25T09:42:59.220Z,19104
2016-05-25T09:43:57.097Z,19008
2016-05-25T09:44:56.927Z,20192
2016-05-25T09:45:56.868Z,21952
2016-05-25T09:46:56.699Z,22656
2016-05-25T09:47:57.233Z,23904
2016-05-25T09:48:58.126Z,23872
2016-05-25T09:49:59.597Z,21536
2016-05-25T09:50:57.022Z,19648
2016-05-25T09:51:57.259Z,20000
2016-05-25T09:52:57.090Z,19680
2016-05-25T09:53:57.843Z,19104
2016-05-25T09:54:57.329Z,20288
2016-05-25T09:55:57.441Z,21664
2016-05-25T09:56:57.537Z,23616
2016-05-25T09:57:58.338Z,25056
2016-05-25T09:58:58.309Z,25856
2016-05-25T09:59:57.545Z,25280
2016-05-25T10:00:57.611Z,24000
2016-05-25T10:02:00.598Z,23680
2016-05-25T10:02:59.757Z,23392
2016-05-25T10:03:57.556Z,23840
2016-05-25T10:04:57.497Z,24384
2016-05-25T10:05:57.672Z,24672
2016-05-25T10:06:57.705Z,24864
2016-05-25T10:07:59.270Z,24512
2016-05-25T10:08:57.945Z,24352
2016-05-25T10:09:58.058Z,23424
2016-05-25T10:10:58.106Z,22656
2016-05-25T10:11:59.297Z,21952
2016-05-25T10:12:58.159Z,20896
2016-05-25T10:13:59.005Z,19488
2016-05-25T10:14:58.211Z,19488
2016-05-25T10:15:58.308Z,18816
2016-05-25T10:16:58.436Z,21376
2016-05-25T10:17:58.220Z,21664
2016-05-25T10:18:58.707Z,20800
2016-05-25T10:20:01.990Z,20000
2016-05-25T10:20:59.774Z,19808
2016-05-25T10:21:58.543Z,18496
2016-05-25T10:22:58.546Z,17408
2016-05-25T10:23:58.907Z,16608
2016-05-25T10:24:58.489Z,16704
2016-05-25T10:25:58.991Z,16672
2016-05-25T10:26:58.806Z,16264
2016-05-25T10:27:58.638Z,16188
2016-05-25T10:28:58.687Z,16512
2016-05-25T10:29:58.689Z,17472
2016-05-25T10:30:59.457Z,18784
2016-05-25T10:32:00.913Z,18752
2016-05-25T10:32:59.010Z,17632
2016-05-25T10:33:59.028Z,15892
2016-05-25T10:34:58.953Z,14648
2016-05-25T10:35:58.956Z,14248
2016-05-25T10:36:59.161Z,14276
2016-05-25T10:37:59.304Z,13936
2016-05-25T10:38:59.229Z,13440
2016-05-25T10:39:58.981Z,12212
2016-05-25T10:40:59.359Z,11332
2016-05-25T10:42:00.081Z,10940
2016-05-25T10:42:59.428Z,11120
2016-05-25T10:43:59.477Z,12004
2016-05-25T10:44:59.447Z,12328
2016-05-25T10:45:59.404Z,11868
2016-05-25T10:47:00.063Z,10540
2016-05-25T10:47:59.863Z,9404
2016-05-25T10:48:59.522Z,9184
2016-05-25T10:49:59.711Z,9316
2016-05-25T10:50:59.761Z,9692
2016-05-25T10:51:59.811Z,10696
2016-05-25T10:53:00.064Z,11880
2016-05-25T10:53:59.894Z,13228
2016-05-25T10:54:59.788Z,15064
2016-05-25T10:55:59.978Z,16372
2016-05-25T10:57:00.027Z,16928
2016-05-25T10:58:00.233Z,16244
2016-05-25T10:58:59.860Z,15520
2016-05-25T11:00:00.145Z,14532
2016-05-25T11:01:00.195Z,13172
2016-05-25T11:02:00.243Z,11844
2016-05-25T11:03:01.591Z,11184
2016-05-25T11:04:00.171Z,10980
2016-05-25T11:05:00.362Z,10968
2016-05-25T11:06:00.427Z,11092
2016-05-25T11:07:00.289Z,11612
2016-05-25T11:08:00.354Z,12512
2016-05-25T11:09:00.419Z,13736
2016-05-25T11:10:00.625Z,15380
2016-05-25T11:11:00.612Z,17888
2016-05-25T11:12:00.506Z,20864
2016-05-25T11:13:02.914Z,23616
2016-05-25T11:14:00.775Z,26688
2016-05-25T11:15:00.778Z,29312
2016-05-25T11:16:00.813Z,28928
2016-05-25T11:17:00.816Z,22304
2016-05-25T11:18:02.100Z,17152
2016-05-25T11:19:00.962Z,14488
2016-05-25T11:20:00.839Z,13464
2016-05-25T11:21:00.638Z,12996
2016-05-25T11:22:00.783Z,12892
2016-05-25T11:23:04.941Z,13056
2016-05-25T11:24:01.100Z,13212
2016-05-25T11:25:03.102Z,14112
2016-05-25T11:26:01.122Z,15272
2016-05-25T11:27:01.890Z,17024
2016-05-25T11:28:03.267Z,18720
2016-05-25T11:29:02.723Z,19936
2016-05-25T11:30:01.476Z,20928
2016-05-25T11:31:01.462Z,20576
2016-05-25T11:32:01.559Z,20128
2016-05-25T11:33:04.343Z,20800
2016-05-25T11:34:01.612Z,21472
2016-05-25T11:35:02.380Z,20928
2016-05-25T11:36:01.664Z,20192
2016-05-25T11:37:02.025Z,19776
2016-05-25T11:38:02.138Z,19296
2016-05-25T11:39:01.859Z,19136
2016-05-25T11:40:01.878Z,18464
2016-05-25T11:41:01.896Z,17760
2016-05-25T11:42:01.930Z,17984
2016-05-25T11:43:02.901Z,19168
2016-05-25T11:44:02.013Z,21504
2016-05-25T11:45:02.063Z,23136
2016-05-25T11:46:01.972Z,21952
2016-05-25T11:47:02.506Z,24000
2016-05-25T11:48:05.931Z,27456
2016-05-25T11:49:02.230Z,24800
2016-05-25T11:50:04.717Z,20832
2016-05-25T11:51:02.329Z,17568
2016-05-25T11:52:03.003Z,16088
2016-05-25T11:53:02.444Z,16128
2016-05-25T11:54:02.712Z,17248
2016-05-25T11:55:02.511Z,17952
2016-05-25T11:56:02.546Z,17920
2016-05-25T11:57:02.579Z,18272
2016-05-25T11:58:02.629Z,19808
2016-05-25T11:59:02.569Z,20480
2016-05-25T12:00:02.729Z,20960
2016-05-25T12:01:05.043Z,20896
2016-05-25T12:02:02.812Z,20032
2016-05-25T12:03:03.174Z,19392
2016-05-25T12:04:02.771Z,17376
2016-05-25T12:05:02.960Z,15156
2016-05-25T12:06:02.978Z,14796
2016-05-25T12:07:03.090Z,14524
2016-05-25T12:08:02.796Z,13852
2016-05-25T12:09:02.940Z,13216
2016-05-25T12:10:04.865Z,13136
2016-05-25T12:11:03.320Z,13048
2016-05-25T12:12:03.244Z,12720
2016-05-25T12:13:03.123Z,12400
2016-05-25T12:14:03.344Z,12416
2016-05-25T12:15:03.081Z,12380
2016-05-25T12:16:03.255Z,12344
2016-05-25T12:17:04.070Z,12372
2016-05-25T12:18:03.714Z,12692
2016-05-25T12:19:03.561Z,13244
2016-05-25T12:20:03.579Z,13660
2016-05-25T12:21:03.503Z,13820
2016-05-25T12:22:03.663Z,14232
2016-05-25T12:23:03.759Z,14616
2016-05-25T12:24:03.761Z,14792
2016-05-25T12:25:03.796Z,14692
2016-05-25T12:26:03.657Z,14612
2016-05-25T12:27:03.754Z,14512
2016-05-25T12:28:03.772Z,14488
2016-05-25T12:29:04.400Z,14808
2016-05-25T12:30:04.027Z,14540
2016-05-25T12:31:04.124Z,14616
2016-05-25T12:32:03.970Z,15136
2016-05-25T12:33:04.160Z,15748
2016-05-25T12:34:04.179Z,16016
2016-05-25T12:35:04.260Z,15916
2016-05-25T12:36:04.278Z,15788
2016-05-25T12:37:05.249Z,15736
2016-05-25T12:38:04.737Z,15584
2016-05-25T12:39:04.412Z,15908
2016-05-25T12:40:04.445Z,15932
2016-05-25T12:41:04.479Z,15644
2016-05-25T12:42:04.387Z,15436
2016-05-25T12:43:06.031Z,15316
2016-05-25T12:44:04.487Z,15132
2016-05-25T12:45:04.678Z,14432
2016-05-25T12:46:04.695Z,13448
2016-05-25T12:47:05.855Z,12988
2016-05-25T12:48:06.701Z,12340
2016-05-25T12:49:04.829Z,11736
2016-05-25T12:50:04.848Z,11332
2016-05-25T12:51:05.974Z,10880
2016-05-25T12:52:05.008Z,10588
2016-05-25T12:53:07.402Z,11064
2016-05-25T12:54:04.874Z,11456
2016-05-25T12:55:04.767Z,11628
2016-05-25T12:56:06.535Z,11224
2016-05-25T12:57:06.427Z,10924
2016-05-25T12:58:05.056Z,10836
2016-05-25T12:59:05.262Z,10848
2016-05-25T13:00:05.280Z,11232
2016-05-25T13:01:06.720Z,11564
2016-05-25T13:02:06.177Z,11684
2016-05-25T13:03:06.804Z,12104
2016-05-25T13:04:05.493Z,12112
2016-05-25T13:05:05.513Z,11960
2016-05-25T13:06:05.577Z,11720
2016-05-25T13:07:05.627Z,11732
2016-05-25T13:08:05.629Z,12040
2016-05-25T13:09:05.523Z,12000
2016-05-25T13:10:05.697Z,11072
2016-05-25T13:11:05.841Z,10332
2016-05-25T13:12:07.203Z,10112
2016-05-25T13:13:05.518Z,9984
2016-05-25T13:14:05.896Z,9776
2016-05-25T13:15:05.961Z,9644
2016-05-25T13:16:05.979Z,10028
2016-05-25T13:17:06.311Z,9980
2016-05-25T13:18:09.813Z,10260
2016-05-25T13:19:05.987Z,10220
2016-05-25T13:20:06.162Z,9940
2016-05-25T13:21:06.181Z,9700
2016-05-25T13:22:06.605Z,9328
2016-05-25T13:23:06.311Z,8804
2016-05-25T13:24:06.329Z,8760
2016-05-25T13:25:07.009Z,9148
2016-05-25T13:26:06.473Z,9308
2016-05-25T13:27:08.530Z,9632
2016-05-25T13:28:06.573Z,9496
2016-05-25T13:29:06.629Z,9300
2016-05-25T13:30:06.699Z,8940
2016-05-25T13:31:06.788Z,8588